首页
METAR-TAF:

METAR-TAF

机场 :

盖拉克斯 / Hillsville, 弗吉尼亚州, 美国

Twin County Airport

纬度: 36-46N, 经度: 080-49W, 海拔: 834米

当前天气观测

该预报发布于16分钟前的14:15 UTC
风速12节,风向南转西南,有时为17节阵风
温度 14°C
湿度 51%
气压 1027 hPa
能見度: 16.1公里
天空无云

METAR: KHLX 221415Z AUTO 21012G17KT 10SM CLR 14/04 A3033 RMK AO2 T01360043

时间: 10:31 (14:31 UTC)


TAF: 丢失

超过4000个机场的气象观测和天气预报(METAR&TAF报告)。

可查询的气象台以黄色和红色小点在地图上表示。

将鼠标移到小点上方,可查看气象台名称。

然后点击查看天气观测和预报。

如需切换地图:点击带黑十字的绿色按钮放大地图;点击带横线的绿色按钮缩小地图;或者点击绿色箭头查看邻近地区的地图。


METAR-TAF: